createdAt,value
2019-03-19T00:02:02.340Z,3.53
2019-03-19T00:07:22.306Z,3.83
2019-03-19T00:12:43.366Z,3.80
2019-03-19T00:18:03.287Z,3.87
2019-03-19T00:23:21.937Z,4.07
2019-03-19T00:29:10.911Z,3.53
2019-03-19T00:34:29.976Z,3.77
2019-03-19T00:39:51.602Z,3.90
2019-03-19T00:45:16.398Z,3.90
2019-03-19T00:50:54.981Z,3.43
2019-03-19T01:07:14.785Z,4.83
2019-03-19T01:18:10.419Z,4.27
2019-03-19T01:23:30.276Z,4.63
2019-03-19T01:28:50.235Z,6.65
2019-03-19T01:34:11.512Z,5.47
2019-03-19T01:45:20.847Z,4.60
2019-03-19T01:50:39.608Z,5.03
2019-03-19T01:56:05.150Z,5.97
2019-03-19T02:01:22.499Z,6.50
2019-03-19T02:06:42.488Z,5.67
2019-03-19T02:12:02.595Z,5.10
2019-03-19T02:17:24.192Z,4.73
2019-03-19T02:22:42.893Z,6.53
2019-03-19T02:28:02.962Z,5.80
2019-03-19T02:33:32.715Z,6.60
2019-03-19T02:38:54.343Z,8.87
2019-03-19T02:49:44.687Z,7.03
2019-03-19T02:55:04.619Z,6.37
2019-03-19T03:00:26.062Z,6.73
2019-03-19T03:05:44.698Z,6.73
2019-03-19T03:11:17.345Z,6.60
2019-03-19T03:16:44.481Z,7.22
2019-03-19T03:27:22.210Z,9.20
2019-03-19T03:32:55.550Z,10.17
2019-03-19T03:38:14.183Z,8.83
2019-03-19T03:43:33.658Z,8.00
2019-03-19T03:54:22.648Z,8.73
2019-03-19T03:59:42.574Z,9.17
2019-03-19T04:05:02.420Z,10.67
2019-03-19T04:27:15.177Z,12.23
2019-03-19T04:32:34.136Z,10.80
2019-03-19T04:37:52.731Z,9.87
2019-03-19T04:43:15.339Z,10.90
2019-03-19T05:10:53.138Z,20.07
2019-03-19T05:27:37.112Z,22.60
2019-03-19T05:32:48.782Z,24.40
2019-03-19T05:43:48.110Z,19.17
2019-03-19T06:22:39.488Z,51.30
2019-03-19T06:39:36.408Z,68.40
2019-03-19T06:45:03.021Z,31.30
2019-03-19T06:50:22.058Z,50.37
2019-03-19T07:01:17.445Z,12.97
2019-03-19T07:06:37.720Z,8.97
2019-03-19T07:17:26.280Z,8.30
2019-03-19T07:40:17.403Z,7.60
2019-03-19T08:02:16.647Z,9.00
2019-03-19T08:07:35.268Z,9.60
2019-03-19T08:12:53.850Z,8.00
2019-03-19T08:18:14.647Z,8.67
2019-03-19T08:23:34.721Z,8.53
2019-03-19T08:28:58.357Z,8.97
2019-03-19T08:39:52.968Z,7.37
2019-03-19T08:45:17.107Z,6.40
2019-03-19T08:50:35.469Z,6.90
2019-03-19T08:55:54.092Z,5.30
2019-03-19T09:01:13.315Z,5.30
2019-03-19T09:06:32.053Z,5.20
2019-03-19T09:11:51.335Z,5.10
2019-03-19T09:17:10.395Z,4.92
2019-03-19T09:22:53.382Z,4.30
2019-03-19T09:28:13.488Z,4.40
2019-03-19T09:33:32.485Z,4.13
2019-03-19T09:38:55.055Z,3.03
2019-03-19T09:44:14.947Z,2.10
2019-03-19T09:49:33.918Z,2.40
2019-03-19T09:54:52.533Z,1.93
2019-03-19T10:00:10.029Z,2.33
2019-03-19T10:05:34.376Z,2.20
2019-03-19T10:10:53.003Z,2.40
2019-03-19T10:16:13.721Z,2.50
2019-03-19T10:21:33.769Z,3.60
2019-03-19T10:26:52.954Z,2.30
2019-03-19T10:32:19.440Z,2.10
2019-03-19T10:37:41.867Z,2.83
2019-03-19T10:43:10.411Z,2.30
2019-03-19T10:48:31.893Z,2.20
2019-03-19T10:53:50.929Z,2.27
2019-03-19T10:59:11.107Z,2.30
2019-03-19T11:04:29.723Z,2.10
2019-03-19T11:09:49.345Z,2.50
2019-03-19T11:15:23.943Z,2.40
2019-03-19T11:20:45.372Z,2.70
2019-03-19T11:26:04.794Z,2.63
2019-03-19T11:31:38.220Z,2.67
2019-03-19T11:37:02.762Z,2.60
2019-03-19T11:42:21.899Z,3.83
2019-03-19T11:47:41.046Z,2.47
2019-03-19T11:53:02.441Z,2.90
2019-03-19T12:03:57.058Z,2.57
2019-03-19T12:09:35.789Z,2.43
2019-03-19T12:14:57.148Z,2.60
2019-03-19T12:20:15.900Z,2.35
2019-03-19T12:25:34.765Z,2.30
2019-03-19T12:30:55.927Z,2.50
2019-03-19T12:36:33.844Z,2.50
2019-03-19T12:41:52.477Z,2.60
2019-03-19T12:47:12.647Z,2.00
2019-03-19T12:52:31.286Z,2.70
2019-03-19T12:57:51.398Z,2.43
2019-03-19T13:03:11.160Z,2.33
2019-03-19T13:08:31.637Z,2.30
2019-03-19T13:13:52.867Z,2.70
2019-03-19T13:19:33.150Z,2.43
2019-03-19T13:24:52.252Z,3.60
2019-03-19T13:30:13.860Z,3.00
2019-03-19T13:35:37.968Z,3.10
2019-03-19T13:40:57.883Z,3.13
2019-03-19T13:46:18.034Z,3.67
2019-03-19T13:51:37.681Z,3.67
2019-03-19T13:57:18.595Z,3.30
2019-03-19T14:02:37.270Z,3.73
2019-03-19T14:07:55.917Z,3.75
2019-03-19T14:13:17.309Z,3.33
2019-03-19T14:18:35.992Z,2.83
2019-03-19T14:23:57.107Z,4.20
2019-03-19T14:29:17.226Z,3.33
2019-03-19T14:34:36.033Z,3.60
2019-03-19T14:39:58.136Z,3.83
2019-03-19T14:45:15.097Z,3.35
2019-03-19T14:50:38.232Z,3.33
2019-03-19T14:55:56.859Z,3.70
2019-03-19T15:01:19.661Z,3.57
2019-03-19T15:06:36.368Z,3.57
2019-03-19T15:11:55.028Z,3.03
2019-03-19T15:17:17.338Z,2.67
2019-03-19T15:22:34.689Z,2.97
2019-03-19T15:27:54.034Z,3.20
2019-03-19T15:33:13.376Z,2.87
2019-03-19T15:38:32.012Z,3.00
2019-03-19T15:43:50.568Z,2.87
2019-03-19T15:49:10.261Z,3.30
2019-03-19T15:54:30.199Z,3.00
2019-03-19T15:59:48.684Z,2.97
2019-03-19T16:05:11.295Z,3.63
2019-03-19T16:10:32.487Z,3.37
2019-03-19T16:15:50.479Z,3.17
2019-03-19T16:21:09.114Z,3.60
2019-03-19T16:26:30.756Z,3.27
2019-03-19T16:31:51.320Z,3.10
2019-03-19T16:37:10.940Z,3.00
2019-03-19T16:42:31.685Z,3.47
2019-03-19T16:47:51.816Z,3.93
2019-03-19T16:53:13.599Z,4.20
2019-03-19T16:58:35.461Z,4.43
2019-03-19T17:03:54.023Z,4.10
2019-03-19T17:09:17.676Z,4.10
2019-03-19T17:14:40.048Z,3.70
2019-03-19T17:20:02.894Z,4.37
2019-03-19T17:25:25.981Z,3.65
2019-03-19T17:30:47.630Z,3.57
2019-03-19T17:36:06.265Z,3.53
2019-03-19T17:41:46.541Z,3.33
2019-03-19T17:47:08.936Z,3.60
2019-03-19T17:52:29.081Z,3.87
2019-03-19T17:57:47.781Z,3.80
2019-03-19T18:03:09.274Z,3.70
2019-03-19T18:08:27.903Z,4.30
2019-03-19T18:13:49.310Z,4.10
2019-03-19T18:19:08.392Z,4.67
2019-03-19T18:24:29.262Z,3.87
2019-03-19T18:29:48.871Z,4.67
2019-03-19T18:35:10.760Z,4.13
2019-03-19T18:40:28.383Z,3.73
2019-03-19T18:45:49.967Z,4.53
2019-03-19T18:51:08.786Z,4.63
2019-03-19T18:56:31.310Z,5.50
2019-03-19T19:01:49.874Z,5.20
2019-03-19T19:07:08.523Z,4.60
2019-03-19T19:12:28.178Z,5.17
2019-03-19T19:17:46.837Z,5.33
2019-03-19T19:23:06.920Z,5.20
2019-03-19T19:28:28.001Z,5.47
2019-03-19T19:33:50.370Z,5.73
2019-03-19T19:39:09.032Z,6.62
2019-03-19T19:44:30.070Z,6.73
2019-03-19T19:49:50.329Z,7.00
2019-03-19T19:55:08.185Z,5.90
2019-03-19T20:00:26.874Z,6.43
2019-03-19T20:05:46.966Z,7.10
2019-03-19T20:11:08.704Z,6.93
2019-03-19T20:16:27.419Z,7.77
2019-03-19T20:21:46.130Z,7.03
2019-03-19T20:27:08.478Z,7.13
2019-03-19T20:32:30.731Z,6.57
2019-03-19T20:37:54.281Z,7.43
2019-03-19T20:43:13.297Z,7.63
2019-03-19T20:48:37.064Z,7.23
2019-03-19T20:53:58.388Z,8.97
2019-03-19T20:59:19.779Z,9.10
2019-03-19T21:04:37.434Z,8.05
2019-03-19T21:10:00.533Z,8.40
2019-03-19T21:15:29.367Z,6.78
2019-03-19T21:20:48.149Z,8.17
2019-03-19T21:26:08.271Z,7.30
2019-03-19T21:31:28.659Z,9.57
2019-03-19T21:37:07.245Z,9.30
2019-03-19T21:42:32.056Z,9.03
2019-03-19T21:47:50.696Z,10.67
2019-03-19T21:53:09.240Z,10.60
2019-03-19T21:58:29.937Z,10.23
2019-03-19T22:03:48.787Z,10.57
2019-03-19T22:09:07.474Z,9.80
2019-03-19T22:14:28.424Z,10.47
2019-03-19T22:19:47.061Z,9.63
2019-03-19T22:25:08.604Z,10.17
2019-03-19T22:30:28.167Z,9.85
2019-03-19T22:35:48.661Z,11.65
2019-03-19T22:41:11.887Z,10.73
2019-03-19T22:46:32.096Z,11.77
2019-03-19T22:51:50.726Z,11.47
2019-03-19T22:57:10.701Z,12.20
2019-03-19T23:02:32.650Z,11.63
2019-03-19T23:07:51.225Z,13.77
2019-03-19T23:13:11.813Z,11.67
2019-03-19T23:18:49.764Z,12.10
2019-03-19T23:24:08.461Z,12.70
2019-03-19T23:29:27.125Z,13.53
2019-03-19T23:34:45.857Z,12.57
2019-03-19T23:40:06.618Z,11.93
2019-03-19T23:45:26.282Z,12.77
2019-03-19T23:50:48.246Z,12.27
2019-03-19T23:56:12.054Z,13.43
